sensor_id;sensor_type;location;lat;lon;timestamp;temperature;humidity
48988;DHT22;34799;51.440;-2.534;2023-04-16T00:01:34;10.80;99.90
48988;DHT22;34799;51.440;-2.534;2023-04-16T00:04:03;10.80;99.90
48988;DHT22;34799;51.440;-2.534;2023-04-16T00:06:30;10.80;99.90
48988;DHT22;34799;51.440;-2.534;2023-04-16T00:08:57;10.80;99.90
48988;DHT22;34799;51.440;-2.534;2023-04-16T00:11:25;10.80;99.90
48988;DHT22;34799;51.440;-2.534;2023-04-16T00:13:52;10.80;99.90
48988;DHT22;34799;51.440;-2.534;2023-04-16T00:16:19;10.90;99.90
48988;DHT22;34799;51.440;-2.534;2023-04-16T00:18:46;10.80;99.90
48988;DHT22;34799;51.440;-2.534;2023-04-16T00:21:15;11.00;99.90
48988;DHT22;34799;51.440;-2.534;2023-04-16T00:23:42;10.70;99.90
48988;DHT22;34799;51.440;-2.534;2023-04-16T00:26:09;10.70;99.90
48988;DHT22;34799;51.440;-2.534;2023-04-16T00:28:38;10.70;99.90
48988;DHT22;34799;51.440;-2.534;2023-04-16T00:31:05;10.70;99.90
48988;DHT22;34799;51.440;-2.534;2023-04-16T00:33:32;11.20;99.90
48988;DHT22;34799;51.440;-2.534;2023-04-16T00:36:00;10.60;99.90
48988;DHT22;34799;51.440;-2.534;2023-04-16T00:38:28;10.60;99.90
48988;DHT22;34799;51.440;-2.534;2023-04-16T00:40:56;10.60;99.90
48988;DHT22;34799;51.440;-2.534;2023-04-16T00:43:27;11.40;99.90
48988;DHT22;34799;51.440;-2.534;2023-04-16T00:45:55;10.70;99.90
48988;DHT22;34799;51.440;-2.534;2023-04-16T00:48:23;10.70;99.90
48988;DHT22;34799;51.440;-2.534;2023-04-16T00:50:50;10.80;99.90
48988;DHT22;34799;51.440;-2.534;2023-04-16T00:53:17;10.70;99.90
48988;DHT22;34799;51.440;-2.534;2023-04-16T00:55:44;11.30;99.90
48988;DHT22;34799;51.440;-2.534;2023-04-16T00:58:13;10.80;99.90
48988;DHT22;34799;51.440;-2.534;2023-04-16T01:00:40;10.80;99.90
48988;DHT22;34799;51.440;-2.534;2023-04-16T01:03:08;10.90;99.90
48988;DHT22;34799;51.440;-2.534;2023-04-16T01:05:35;10.80;99.90
48988;DHT22;34799;51.440;-2.534;2023-04-16T01:08:03;10.70;99.90
48988;DHT22;34799;51.440;-2.534;2023-04-16T01:10:32;10.70;99.90
48988;DHT22;34799;51.440;-2.534;2023-04-16T01:12:59;10.70;99.90
48988;DHT22;34799;51.440;-2.534;2023-04-16T01:15:26;11.30;99.90
48988;DHT22;34799;51.440;-2.534;2023-04-16T01:17:53;10.60;99.90
48988;DHT22;34799;51.440;-2.534;2023-04-16T01:20:20;10.50;99.90
48988;DHT22;34799;51.440;-2.534;2023-04-16T01:22:47;10.50;99.90
48988;DHT22;34799;51.440;-2.534;2023-04-16T01:25:14;10.50;99.90
48988;DHT22;34799;51.440;-2.534;2023-04-16T01:27:44;9.90;99.90
48988;DHT22;34799;51.440;-2.534;2023-04-16T01:30:11;10.50;99.90
48988;DHT22;34799;51.440;-2.534;2023-04-16T01:32:49;10.60;99.90
48988;DHT22;34799;51.440;-2.534;2023-04-16T01:35:16;10.60;99.90
48988;DHT22;34799;51.440;-2.534;2023-04-16T01:37:48;10.60;99.90
48988;DHT22;34799;51.440;-2.534;2023-04-16T01:40:16;11.10;99.90
48988;DHT22;34799;51.440;-2.534;2023-04-16T01:42:43;9.20;99.90
48988;DHT22;34799;51.440;-2.534;2023-04-16T01:45:11;10.80;99.90
48988;DHT22;34799;51.440;-2.534;2023-04-16T01:47:39;10.70;99.90
48988;DHT22;34799;51.440;-2.534;2023-04-16T01:50:07;10.70;99.90
48988;DHT22;34799;51.440;-2.534;2023-04-16T01:52:34;10.70;99.90
48988;DHT22;34799;51.440;-2.534;2023-04-16T01:55:03;10.70;99.90
48988;DHT22;34799;51.440;-2.534;2023-04-16T01:57:30;10.70;99.90
48988;DHT22;34799;51.440;-2.534;2023-04-16T01:59:57;11.00;99.90
48988;DHT22;34799;51.440;-2.534;2023-04-16T02:02:25;10.70;99.90
48988;DHT22;34799;51.440;-2.534;2023-04-16T02:04:55;10.70;99.90
48988;DHT22;34799;51.440;-2.534;2023-04-16T02:07:26;11.40;99.90
48988;DHT22;34799;51.440;-2.534;2023-04-16T02:09:53;10.70;99.90
48988;DHT22;34799;51.440;-2.534;2023-04-16T02:12:21;10.70;99.90
48988;DHT22;34799;51.440;-2.534;2023-04-16T02:14:48;10.70;99.90
48988;DHT22;34799;51.440;-2.534;2023-04-16T02:17:16;10.90;99.90
48988;DHT22;34799;51.440;-2.534;2023-04-16T02:23:16;10.70;99.90
48988;DHT22;34799;51.440;-2.534;2023-04-16T02:25:46;10.70;99.90
48988;DHT22;34799;51.440;-2.534;2023-04-16T02:28:15;11.40;99.90
48988;DHT22;34799;51.440;-2.534;2023-04-16T02:30:44;10.70;99.90
48988;DHT22;34799;51.440;-2.534;2023-04-16T02:33:14;11.30;99.90
48988;DHT22;34799;51.440;-2.534;2023-04-16T02:35:52;10.60;99.90
48988;DHT22;34799;51.440;-2.534;2023-04-16T02:38:19;11.30;99.90
48988;DHT22;34799;51.440;-2.534;2023-04-16T02:40:46;10.70;99.90
48988;DHT22;34799;51.440;-2.534;2023-04-16T02:43:16;10.70;99.90
48988;DHT22;34799;51.440;-2.534;2023-04-16T02:45:43;10.70;99.90
48988;DHT22;34799;51.440;-2.534;2023-04-16T02:48:10;11.60;99.90
48988;DHT22;34799;51.440;-2.534;2023-04-16T02:50:37;10.60;99.90
48988;DHT22;34799;51.440;-2.534;2023-04-16T02:53:04;10.60;99.90
48988;DHT22;34799;51.440;-2.534;2023-04-16T02:55:35;11.00;99.90
48988;DHT22;34799;51.440;-2.534;2023-04-16T02:58:02;10.50;99.90
48988;DHT22;34799;51.440;-2.534;2023-04-16T03:00:29;10.50;99.90
48988;DHT22;34799;51.440;-2.534;2023-04-16T03:02:56;10.60;99.90
48988;DHT22;34799;51.440;-2.534;2023-04-16T03:05:23;11.30;99.90
48988;DHT22;34799;51.440;-2.534;2023-04-16T03:07:50;10.60;99.90
48988;DHT22;34799;51.440;-2.534;2023-04-16T03:10:22;10.60;99.90
48988;DHT22;34799;51.440;-2.534;2023-04-16T03:12:50;10.60;99.90
48988;DHT22;34799;51.440;-2.534;2023-04-16T03:15:17;10.60;99.90
48988;DHT22;34799;51.440;-2.534;2023-04-16T03:17:44;10.60;99.90
48988;DHT22;34799;51.440;-2.534;2023-04-16T03:20:11;10.60;99.90
48988;DHT22;34799;51.440;-2.534;2023-04-16T03:22:40;10.60;99.90
48988;DHT22;34799;51.440;-2.534;2023-04-16T03:25:08;10.60;99.90
48988;DHT22;34799;51.440;-2.534;2023-04-16T03:27:35;10.60;99.90
48988;DHT22;34799;51.440;-2.534;2023-04-16T03:30:03;10.60;99.90
48988;DHT22;34799;51.440;-2.534;2023-04-16T03:32:33;10.60;99.90
48988;DHT22;34799;51.440;-2.534;2023-04-16T03:35:03;10.60;99.90
48988;DHT22;34799;51.440;-2.534;2023-04-16T03:37:30;10.50;99.90
48988;DHT22;34799;51.440;-2.534;2023-04-16T03:39:57;11.70;99.90
48988;DHT22;34799;51.440;-2.534;2023-04-16T03:42:27;10.50;99.90
48988;DHT22;34799;51.440;-2.534;2023-04-16T03:44:56;10.60;99.90
48988;DHT22;34799;51.440;-2.534;2023-04-16T03:47:23;10.60;99.90
48988;DHT22;34799;51.440;-2.534;2023-04-16T03:49:54;10.60;99.90
48988;DHT22;34799;51.440;-2.534;2023-04-16T03:52:21;10.60;99.90
48988;DHT22;34799;51.440;-2.534;2023-04-16T03:54:48;10.90;99.90
48988;DHT22;34799;51.440;-2.534;2023-04-16T03:57:22;10.60;99.90
48988;DHT22;34799;51.440;-2.534;2023-04-16T03:59:50;10.60;99.90
48988;DHT22;34799;51.440;-2.534;2023-04-16T04:02:17;10.70;99.90
48988;DHT22;34799;51.440;-2.534;2023-04-16T04:04:44;10.60;99.90
48988;DHT22;34799;51.440;-2.534;2023-04-16T04:07:11;10.40;99.90
48988;DHT22;34799;51.440;-2.534;2023-04-16T04:09:38;10.70;99.90
48988;DHT22;34799;51.440;-2.534;2023-04-16T04:12:07;10.60;99.90
48988;DHT22;34799;51.440;-2.534;2023-04-16T04:14:37;10.40;99.90
48988;DHT22;34799;51.440;-2.534;2023-04-16T04:17:08;10.40;99.90
48988;DHT22;34799;51.440;-2.534;2023-04-16T04:19:35;10.40;99.90
48988;DHT22;34799;51.440;-2.534;2023-04-16T04:22:02;10.50;99.90
48988;DHT22;34799;51.440;-2.534;2023-04-16T04:24:29;10.40;99.90
48988;DHT22;34799;51.440;-2.534;2023-04-16T04:26:57;10.40;99.90
48988;DHT22;34799;51.440;-2.534;2023-04-16T04:29:24;10.40;99.90
48988;DHT22;34799;51.440;-2.534;2023-04-16T04:31:51;10.40;99.90
48988;DHT22;34799;51.440;-2.534;2023-04-16T04:34:21;10.40;99.90
48988;DHT22;34799;51.440;-2.534;2023-04-16T04:36:48;10.40;99.90
48988;DHT22;34799;51.440;-2.534;2023-04-16T04:39:15;10.80;99.90
48988;DHT22;34799;51.440;-2.534;2023-04-16T04:41:42;10.90;99.90
48988;DHT22;34799;51.440;-2.534;2023-04-16T04:44:10;10.30;99.90
48988;DHT22;34799;51.440;-2.534;2023-04-16T04:46:37;10.30;99.90
48988;DHT22;34799;51.440;-2.534;2023-04-16T04:49:05;10.30;99.90
48988;DHT22;34799;51.440;-2.534;2023-04-16T04:51:32;10.20;99.90
48988;DHT22;34799;51.440;-2.534;2023-04-16T04:54:00;10.20;99.90
48988;DHT22;34799;51.440;-2.534;2023-04-16T04:56:27;10.20;99.90
48988;DHT22;34799;51.440;-2.534;2023-04-16T04:58:54;10.20;99.90
48988;DHT22;34799;51.440;-2.534;2023-04-16T05:01:22;10.20;99.90
48988;DHT22;34799;51.440;-2.534;2023-04-16T05:03:48;10.60;99.90
48988;DHT22;34799;51.440;-2.534;2023-04-16T05:06:17;10.20;99.90
48988;DHT22;34799;51.440;-2.534;2023-04-16T05:08:44;10.10;99.90
48988;DHT22;34799;51.440;-2.534;2023-04-16T05:11:11;10.10;99.90
48988;DHT22;34799;51.440;-2.534;2023-04-16T05:13:38;10.10;99.90
48988;DHT22;34799;51.440;-2.534;2023-04-16T05:16:05;10.80;99.90
48988;DHT22;34799;51.440;-2.534;2023-04-16T05:18:32;10.10;99.90
48988;DHT22;34799;51.440;-2.534;2023-04-16T05:20:59;10.10;99.90
48988;DHT22;34799;51.440;-2.534;2023-04-16T05:23:27;10.10;99.90
48988;DHT22;34799;51.440;-2.534;2023-04-16T05:25:55;10.30;99.90
48988;DHT22;34799;51.440;-2.534;2023-04-16T05:28:22;10.00;99.90
48988;DHT22;34799;51.440;-2.534;2023-04-16T05:30:49;10.00;99.90
48988;DHT22;34799;51.440;-2.534;2023-04-16T05:33:17;10.00;99.90
48988;DHT22;34799;51.440;-2.534;2023-04-16T05:35:44;10.30;99.90
48988;DHT22;34799;51.440;-2.534;2023-04-16T05:38:11;11.10;99.90
48988;DHT22;34799;51.440;-2.534;2023-04-16T05:40:38;10.00;99.90
48988;DHT22;34799;51.440;-2.534;2023-04-16T05:43:07;10.10;99.90
48988;DHT22;34799;51.440;-2.534;2023-04-16T05:45:34;10.00;99.90
48988;DHT22;34799;51.440;-2.534;2023-04-16T05:48:08;10.50;99.90
48988;DHT22;34799;51.440;-2.534;2023-04-16T05:54:06;9.90;99.90
48988;DHT22;34799;51.440;-2.534;2023-04-16T05:56:33;9.90;99.90
48988;DHT22;34799;51.440;-2.534;2023-04-16T05:59:00;10.40;99.90
48988;DHT22;34799;51.440;-2.534;2023-04-16T06:01:27;9.90;99.90
48988;DHT22;34799;51.440;-2.534;2023-04-16T06:03:54;9.90;99.90
48988;DHT22;34799;51.440;-2.534;2023-04-16T06:06:21;9.90;99.90
48988;DHT22;34799;51.440;-2.534;2023-04-16T06:08:50;10.00;99.90
48988;DHT22;34799;51.440;-2.534;2023-04-16T06:11:17;9.90;99.90
48988;DHT22;34799;51.440;-2.534;2023-04-16T06:13:44;9.90;99.90
48988;DHT22;34799;51.440;-2.534;2023-04-16T06:16:11;9.90;99.90
48988;DHT22;34799;51.440;-2.534;2023-04-16T06:18:38;10.10;99.90
48988;DHT22;34799;51.440;-2.534;2023-04-16T06:21:05;10.00;99.90
48988;DHT22;34799;51.440;-2.534;2023-04-16T06:23:32;10.00;99.90
48988;DHT22;34799;51.440;-2.534;2023-04-16T06:25:59;10.00;99.90
48988;DHT22;34799;51.440;-2.534;2023-04-16T06:28:27;10.00;99.90
48988;DHT22;34799;51.440;-2.534;2023-04-16T06:30:54;10.10;99.90
48988;DHT22;34799;51.440;-2.534;2023-04-16T06:33:22;10.10;99.90
48988;DHT22;34799;51.440;-2.534;2023-04-16T06:35:49;10.10;99.90
48988;DHT22;34799;51.440;-2.534;2023-04-16T06:38:16;10.10;99.90
48988;DHT22;34799;51.440;-2.534;2023-04-16T06:40:43;10.20;99.90
48988;DHT22;34799;51.440;-2.534;2023-04-16T06:43:10;10.20;99.90
48988;DHT22;34799;51.440;-2.534;2023-04-16T06:45:39;10.10;99.90
48988;DHT22;34799;51.440;-2.534;2023-04-16T06:48:06;10.10;99.90
48988;DHT22;34799;51.440;-2.534;2023-04-16T06:50:33;10.20;99.90
48988;DHT22;34799;51.440;-2.534;2023-04-16T06:53:00;10.20;99.90
48988;DHT22;34799;51.440;-2.534;2023-04-16T06:55:27;10.20;99.90
48988;DHT22;34799;51.440;-2.534;2023-04-16T06:57:54;10.30;99.90
48988;DHT22;34799;51.440;-2.534;2023-04-16T07:00:21;10.70;99.90
48988;DHT22;34799;51.440;-2.534;2023-04-16T07:02:48;10.30;99.90
48988;DHT22;34799;51.440;-2.534;2023-04-16T07:05:17;10.30;99.90
48988;DHT22;34799;51.440;-2.534;2023-04-16T07:07:44;10.40;99.90
48988;DHT22;34799;51.440;-2.534;2023-04-16T07:10:11;10.50;99.90
48988;DHT22;34799;51.440;-2.534;2023-04-16T07:12:38;10.50;99.90
48988;DHT22;34799;51.440;-2.534;2023-04-16T07:15:06;10.70;99.90
48988;DHT22;34799;51.440;-2.534;2023-04-16T07:17:33;10.60;99.90
48988;DHT22;34799;51.440;-2.534;2023-04-16T07:20:02;10.70;99.90
48988;DHT22;34799;51.440;-2.534;2023-04-16T07:22:29;10.70;99.90
48988;DHT22;34799;51.440;-2.534;2023-04-16T07:24:56;10.80;99.90
48988;DHT22;34799;51.440;-2.534;2023-04-16T07:27:23;11.00;99.90
48988;DHT22;34799;51.440;-2.534;2023-04-16T07:29:50;10.90;99.90
48988;DHT22;34799;51.440;-2.534;2023-04-16T07:32:17;12.20;99.90
48988;DHT22;34799;51.440;-2.534;2023-04-16T07:34:45;11.00;99.90
48988;DHT22;34799;51.440;-2.534;2023-04-16T07:37:14;11.00;99.90
48988;DHT22;34799;51.440;-2.534;2023-04-16T07:39:41;11.00;99.90
48988;DHT22;34799;51.440;-2.534;2023-04-16T07:42:08;11.10;99.90
48988;DHT22;34799;51.440;-2.534;2023-04-16T07:44:35;11.10;99.90
48988;DHT22;34799;51.440;-2.534;2023-04-16T07:47:02;11.10;99.90
48988;DHT22;34799;51.440;-2.534;2023-04-16T07:49:31;9.00;99.90
48988;DHT22;34799;51.440;-2.534;2023-04-16T07:51:58;11.10;99.90
48988;DHT22;34799;51.440;-2.534;2023-04-16T07:54:27;11.20;99.90
48988;DHT22;34799;51.440;-2.534;2023-04-16T07:56:54;11.30;99.90
48988;DHT22;34799;51.440;-2.534;2023-04-16T07:59:21;11.40;99.90
48988;DHT22;34799;51.440;-2.534;2023-04-16T08:01:51;11.50;99.90
48988;DHT22;34799;51.440;-2.534;2023-04-16T08:04:18;11.60;99.90
48988;DHT22;34799;51.440;-2.534;2023-04-16T08:06:50;11.60;99.90
48988;DHT22;34799;51.440;-2.534;2023-04-16T08:09:22;11.90;99.90
48988;DHT22;34799;51.440;-2.534;2023-04-16T08:11:49;11.70;99.90
48988;DHT22;34799;51.440;-2.534;2023-04-16T08:14:16;11.70;99.90
48988;DHT22;34799;51.440;-2.534;2023-04-16T08:16:43;11.70;99.90
48988;DHT22;34799;51.440;-2.534;2023-04-16T08:19:10;11.70;99.90
48988;DHT22;34799;51.440;-2.534;2023-04-16T08:21:38;11.70;99.90
48988;DHT22;34799;51.440;-2.534;2023-04-16T08:24:05;11.80;99.90
48988;DHT22;34799;51.440;-2.534;2023-04-16T08:26:34;11.80;99.90
48988;DHT22;34799;51.440;-2.534;2023-04-16T08:29:01;11.90;99.90
48988;DHT22;34799;51.440;-2.534;2023-04-16T08:31:28;11.90;99.90
48988;DHT22;34799;51.440;-2.534;2023-04-16T08:33:55;12.00;99.90
48988;DHT22;34799;51.440;-2.534;2023-04-16T08:36:22;12.10;99.90
48988;DHT22;34799;51.440;-2.534;2023-04-16T08:38:49;12.10;99.90
48988;DHT22;34799;51.440;-2.534;2023-04-16T08:41:20;12.30;99.90
48988;DHT22;34799;51.440;-2.534;2023-04-16T08:43:49;12.40;99.90
48988;DHT22;34799;51.440;-2.534;2023-04-16T08:46:21;12.30;99.90
48988;DHT22;34799;51.440;-2.534;2023-04-16T08:48:53;12.30;99.90
48988;DHT22;34799;51.440;-2.534;2023-04-16T08:51:23;12.40;99.90
48988;DHT22;34799;51.440;-2.534;2023-04-16T08:53:59;12.40;99.90
48988;DHT22;34799;51.440;-2.534;2023-04-16T08:56:30;12.40;99.90
48988;DHT22;34799;51.440;-2.534;2023-04-16T08:58:59;12.50;99.90
48988;DHT22;34799;51.440;-2.534;2023-04-16T09:01:34;12.50;99.90
48988;DHT22;34799;51.440;-2.534;2023-04-16T09:04:02;12.40;99.90
48988;DHT22;34799;51.440;-2.534;2023-04-16T09:06:29;12.40;99.90
48988;DHT22;34799;51.440;-2.534;2023-04-16T09:08:58;12.50;99.90
48988;DHT22;34799;51.440;-2.534;2023-04-16T09:11:28;12.40;99.90
48988;DHT22;34799;51.440;-2.534;2023-04-16T09:13:55;12.50;99.90
48988;DHT22;34799;51.440;-2.534;2023-04-16T09:16:23;12.90;99.90
48988;DHT22;34799;51.440;-2.534;2023-04-16T09:18:51;12.70;99.90
48988;DHT22;34799;51.440;-2.534;2023-04-16T09:21:18;13.00;99.90
48988;DHT22;34799;51.440;-2.534;2023-04-16T09:23:48;12.50;99.90
48988;DHT22;34799;51.440;-2.534;2023-04-16T09:26:15;12.50;99.90
48988;DHT22;34799;51.440;-2.534;2023-04-16T09:28:44;12.70;99.90
48988;DHT22;34799;51.440;-2.534;2023-04-16T09:31:13;12.60;99.90
48988;DHT22;34799;51.440;-2.534;2023-04-16T09:33:42;12.50;99.90
48988;DHT22;34799;51.440;-2.534;2023-04-16T09:36:09;12.60;99.90
48988;DHT22;34799;51.440;-2.534;2023-04-16T09:38:51;12.50;99.90
48988;DHT22;34799;51.440;-2.534;2023-04-16T09:41:24;12.50;99.90
48988;DHT22;34799;51.440;-2.534;2023-04-16T09:48:55;12.70;99.90
48988;DHT22;34799;51.440;-2.534;2023-04-16T09:51:23;12.60;99.90
48988;DHT22;34799;51.440;-2.534;2023-04-16T09:53:52;12.60;99.90
48988;DHT22;34799;51.440;-2.534;2023-04-16T09:56:25;12.70;99.90
48988;DHT22;34799;51.440;-2.534;2023-04-16T09:59:01;12.70;99.90
48988;DHT22;34799;51.440;-2.534;2023-04-16T10:01:29;12.70;99.90
48988;DHT22;34799;51.440;-2.534;2023-04-16T10:03:58;12.80;99.90
48988;DHT22;34799;51.440;-2.534;2023-04-16T10:06:25;12.90;99.90
48988;DHT22;34799;51.440;-2.534;2023-04-16T10:08:54;13.10;99.90
48988;DHT22;34799;51.440;-2.534;2023-04-16T10:11:25;13.20;99.90
48988;DHT22;34799;51.440;-2.534;2023-04-16T10:13:52;13.30;99.90
48988;DHT22;34799;51.440;-2.534;2023-04-16T10:16:21;13.50;99.90
48988;DHT22;34799;51.440;-2.534;2023-04-16T10:18:48;13.90;99.90
48988;DHT22;34799;51.440;-2.534;2023-04-16T10:21:15;13.60;99.90
48988;DHT22;34799;51.440;-2.534;2023-04-16T10:23:43;13.60;99.90
48988;DHT22;34799;51.440;-2.534;2023-04-16T10:26:11;13.50;99.90
48988;DHT22;34799;51.440;-2.534;2023-04-16T10:28:39;13.40;99.90
48988;DHT22;34799;51.440;-2.534;2023-04-16T10:31:07;13.50;99.90
48988;DHT22;34799;51.440;-2.534;2023-04-16T10:33:40;13.40;99.90
48988;DHT22;34799;51.440;-2.534;2023-04-16T10:38:38;13.20;99.90
48988;DHT22;34799;51.440;-2.534;2023-04-16T10:41:07;13.10;99.90
48988;DHT22;34799;51.440;-2.534;2023-04-16T10:43:42;13.10;99.90
48988;DHT22;34799;51.440;-2.534;2023-04-16T10:46:21;13.10;99.90
48988;DHT22;34799;51.440;-2.534;2023-04-16T10:48:52;13.10;99.90
48988;DHT22;34799;51.440;-2.534;2023-04-16T10:53:51;13.20;99.90
48988;DHT22;34799;51.440;-2.534;2023-04-16T10:56:25;13.20;99.90
48988;DHT22;34799;51.440;-2.534;2023-04-16T10:58:54;13.20;99.90
48988;DHT22;34799;51.440;-2.534;2023-04-16T11:01:35;13.20;99.90
48988;DHT22;34799;51.440;-2.534;2023-04-16T11:09:43;13.20;99.90
48988;DHT22;34799;51.440;-2.534;2023-04-16T11:12:17;13.20;99.90
48988;DHT22;34799;51.440;-2.534;2023-04-16T11:14:53;13.20;99.90
48988;DHT22;34799;51.440;-2.534;2023-04-16T11:17:21;13.20;99.90
48988;DHT22;34799;51.440;-2.534;2023-04-16T11:19:49;13.20;99.90
48988;DHT22;34799;51.440;-2.534;2023-04-16T11:22:16;13.20;99.90
48988;DHT22;34799;51.440;-2.534;2023-04-16T11:24:45;13.60;99.90
48988;DHT22;34799;51.440;-2.534;2023-04-16T11:27:13;13.20;99.90
48988;DHT22;34799;51.440;-2.534;2023-04-16T11:29:42;13.30;99.90
48988;DHT22;34799;51.440;-2.534;2023-04-16T11:32:09;13.60;99.90
48988;DHT22;34799;51.440;-2.534;2023-04-16T11:34:43;13.40;99.90
48988;DHT22;34799;51.440;-2.534;2023-04-16T11:37:11;13.30;99.90
48988;DHT22;34799;51.440;-2.534;2023-04-16T11:39:51;13.30;99.90
48988;DHT22;34799;51.440;-2.534;2023-04-16T11:42:20;13.30;99.90
48988;DHT22;34799;51.440;-2.534;2023-04-16T11:44:53;13.40;99.90
48988;DHT22;34799;51.440;-2.534;2023-04-16T11:47:24;13.40;99.90
48988;DHT22;34799;51.440;-2.534;2023-04-16T11:49:51;13.50;99.90
48988;DHT22;34799;51.440;-2.534;2023-04-16T11:52:30;13.50;99.90
48988;DHT22;34799;51.440;-2.534;2023-04-16T11:54:58;13.40;99.90
48988;DHT22;34799;51.440;-2.534;2023-04-16T11:57:29;13.40;99.90
48988;DHT22;34799;51.440;-2.534;2023-04-16T11:59:58;13.40;99.90
48988;DHT22;34799;51.440;-2.534;2023-04-16T12:05:02;13.50;99.90
48988;DHT22;34799;51.440;-2.534;2023-04-16T12:07:29;13.50;99.90
48988;DHT22;34799;51.440;-2.534;2023-04-16T12:10:07;13.50;99.90
48988;DHT22;34799;51.440;-2.534;2023-04-16T12:12:34;13.60;99.90
48988;DHT22;34799;51.440;-2.534;2023-04-16T12:15:02;13.60;99.90
48988;DHT22;34799;51.440;-2.534;2023-04-16T12:17:32;13.60;99.90
48988;DHT22;34799;51.440;-2.534;2023-04-16T12:20:06;13.80;99.90
48988;DHT22;34799;51.440;-2.534;2023-04-16T12:22:38;13.70;99.90
48988;DHT22;34799;51.440;-2.534;2023-04-16T12:25:13;13.80;99.90
48988;DHT22;34799;51.440;-2.534;2023-04-16T12:27:53;13.80;99.90
48988;DHT22;34799;51.440;-2.534;2023-04-16T12:30:23;13.80;99.90
48988;DHT22;34799;51.440;-2.534;2023-04-16T12:35:37;13.90;99.90
48988;DHT22;34799;51.440;-2.534;2023-04-16T12:38:04;14.00;99.90
48988;DHT22;34799;51.440;-2.534;2023-04-16T12:40:31;14.30;99.90
48988;DHT22;34799;51.440;-2.534;2023-04-16T12:43:00;14.30;99.90
48988;DHT22;34799;51.440;-2.534;2023-04-16T12:45:27;14.50;99.90
48988;DHT22;34799;51.440;-2.534;2023-04-16T12:47:54;14.60;99.90
48988;DHT22;34799;51.440;-2.534;2023-04-16T12:50:22;14.60;99.90
48988;DHT22;34799;51.440;-2.534;2023-04-16T12:52:49;14.80;99.90
48988;DHT22;34799;51.440;-2.534;2023-04-16T12:55:16;14.80;99.90
48988;DHT22;34799;51.440;-2.534;2023-04-16T12:57:43;14.80;99.90
48988;DHT22;34799;51.440;-2.534;2023-04-16T13:00:11;14.90;99.90
48988;DHT22;34799;51.440;-2.534;2023-04-16T13:02:40;14.80;99.90
48988;DHT22;34799;51.440;-2.534;2023-04-16T13:05:07;14.90;99.90
48988;DHT22;34799;51.440;-2.534;2023-04-16T13:07:34;14.80;99.90
48988;DHT22;34799;51.440;-2.534;2023-04-16T13:10:02;14.70;99.90
48988;DHT22;34799;51.440;-2.534;2023-04-16T13:12:30;14.70;99.90
48988;DHT22;34799;51.440;-2.534;2023-04-16T13:14:58;14.60;99.90
48988;DHT22;34799;51.440;-2.534;2023-04-16T13:17:25;14.60;99.90
48988;DHT22;34799;51.440;-2.534;2023-04-16T13:19:52;14.50;99.90
48988;DHT22;34799;51.440;-2.534;2023-04-16T13:22:19;14.50;99.90
48988;DHT22;34799;51.440;-2.534;2023-04-16T13:24:46;14.30;99.90
48988;DHT22;34799;51.440;-2.534;2023-04-16T13:27:13;14.20;99.90
48988;DHT22;34799;51.440;-2.534;2023-04-16T13:29:43;14.20;99.90
48988;DHT22;34799;51.440;-2.534;2023-04-16T13:32:10;14.20;99.90
48988;DHT22;34799;51.440;-2.534;2023-04-16T13:34:39;14.10;99.90
48988;DHT22;34799;51.440;-2.534;2023-04-16T13:37:06;14.10;99.90
48988;DHT22;34799;51.440;-2.534;2023-04-16T13:39:33;14.00;99.90
48988;DHT22;34799;51.440;-2.534;2023-04-16T13:42:02;13.80;99.90
48988;DHT22;34799;51.440;-2.534;2023-04-16T13:44:29;13.70;99.90
48988;DHT22;34799;51.440;-2.534;2023-04-16T13:46:56;13.50;99.90
48988;DHT22;34799;51.440;-2.534;2023-04-16T13:49:23;13.40;99.90
48988;DHT22;34799;51.440;-2.534;2023-04-16T13:51:50;13.40;99.90
48988;DHT22;34799;51.440;-2.534;2023-04-16T13:54:17;13.30;99.90
48988;DHT22;34799;51.440;-2.534;2023-04-16T13:56:44;13.30;99.90
48988;DHT22;34799;51.440;-2.534;2023-04-16T13:59:11;13.30;99.90
48988;DHT22;34799;51.440;-2.534;2023-04-16T14:01:40;13.30;99.90
48988;DHT22;34799;51.440;-2.534;2023-04-16T14:04:07;13.40;99.90
48988;DHT22;34799;51.440;-2.534;2023-04-16T14:06:34;13.40;99.90
48988;DHT22;34799;51.440;-2.534;2023-04-16T14:09:01;13.30;99.90
48988;DHT22;34799;51.440;-2.534;2023-04-16T14:11:28;13.50;99.90
48988;DHT22;34799;51.440;-2.534;2023-04-16T14:13:56;13.40;99.90
48988;DHT22;34799;51.440;-2.534;2023-04-16T14:16:23;13.50;99.90
48988;DHT22;34799;51.440;-2.534;2023-04-16T14:18:52;13.60;99.90
48988;DHT22;34799;51.440;-2.534;2023-04-16T14:21:19;13.70;99.90
48988;DHT22;34799;51.440;-2.534;2023-04-16T14:23:46;13.80;99.90
48988;DHT22;34799;51.440;-2.534;2023-04-16T14:26:13;13.80;99.90
48988;DHT22;34799;51.440;-2.534;2023-04-16T14:28:40;13.90;99.90
48988;DHT22;34799;51.440;-2.534;2023-04-16T14:31:07;14.00;99.90
48988;DHT22;34799;51.440;-2.534;2023-04-16T14:33:34;14.10;99.90
48988;DHT22;34799;51.440;-2.534;2023-04-16T14:36:04;14.10;99.90
48988;DHT22;34799;51.440;-2.534;2023-04-16T14:38:31;14.10;99.90
48988;DHT22;34799;51.440;-2.534;2023-04-16T14:40:58;14.20;99.90
48988;DHT22;34799;51.440;-2.534;2023-04-16T14:43:26;14.30;99.90
48988;DHT22;34799;51.440;-2.534;2023-04-16T14:45:53;14.30;99.90
48988;DHT22;34799;51.440;-2.534;2023-04-16T14:48:20;14.30;99.90
48988;DHT22;34799;51.440;-2.534;2023-04-16T14:50:49;14.20;99.90
48988;DHT22;34799;51.440;-2.534;2023-04-16T14:53:16;14.30;99.90
48988;DHT22;34799;51.440;-2.534;2023-04-16T14:55:44;14.30;99.90
48988;DHT22;34799;51.440;-2.534;2023-04-16T14:58:11;14.30;99.90
48988;DHT22;34799;51.440;-2.534;2023-04-16T15:00:38;14.30;99.90
48988;DHT22;34799;51.440;-2.534;2023-04-16T15:03:06;14.40;99.90
48988;DHT22;34799;51.440;-2.534;2023-04-16T15:05:34;14.30;99.90
48988;DHT22;34799;51.440;-2.534;2023-04-16T15:08:02;14.30;99.90
48988;DHT22;34799;51.440;-2.534;2023-04-16T15:10:31;14.40;99.90
48988;DHT22;34799;51.440;-2.534;2023-04-16T15:12:58;14.30;99.90
48988;DHT22;34799;51.440;-2.534;2023-04-16T15:15:25;14.20;99.90
48988;DHT22;34799;51.440;-2.534;2023-04-16T15:17:52;14.20;99.90
48988;DHT22;34799;51.440;-2.534;2023-04-16T15:20:21;14.20;99.90
48988;DHT22;34799;51.440;-2.534;2023-04-16T15:22:48;14.30;99.90
48988;DHT22;34799;51.440;-2.534;2023-04-16T15:25:16;14.20;99.90
48988;DHT22;34799;51.440;-2.534;2023-04-16T15:27:43;14.30;99.90
48988;DHT22;34799;51.440;-2.534;2023-04-16T15:30:10;14.30;99.90
48988;DHT22;34799;51.440;-2.534;2023-04-16T15:32:38;14.30;99.90
48988;DHT22;34799;51.440;-2.534;2023-04-16T15:35:07;14.30;99.90
48988;DHT22;34799;51.440;-2.534;2023-04-16T15:37:36;14.20;99.90
48988;DHT22;34799;51.440;-2.534;2023-04-16T15:40:05;14.20;99.90
48988;DHT22;34799;51.440;-2.534;2023-04-16T15:42:34;14.20;99.90
48988;DHT22;34799;51.440;-2.534;2023-04-16T15:45:01;14.30;99.90
48988;DHT22;34799;51.440;-2.534;2023-04-16T15:47:28;14.30;99.90
48988;DHT22;34799;51.440;-2.534;2023-04-16T15:49:56;14.30;99.90
48988;DHT22;34799;51.440;-2.534;2023-04-16T15:52:23;14.30;99.90